createdAt,value
2019-03-16T00:00:01.707Z,101082.22
2019-03-16T00:01:01.802Z,101084.06
2019-03-16T00:02:02.727Z,101085.54
2019-03-16T00:03:03.628Z,101085.95
2019-03-16T00:04:04.497Z,101086.95
2019-03-16T00:05:05.352Z,101088.11
2019-03-16T00:06:06.205Z,101088.77
2019-03-16T00:07:06.446Z,101089.98
2019-03-16T00:08:06.517Z,101090.22
2019-03-16T00:09:06.533Z,101091.59
2019-03-16T00:10:07.387Z,101092.36
2019-03-16T00:11:08.325Z,101093.45
2019-03-16T00:12:09.005Z,101094.58
2019-03-16T00:13:09.743Z,101095.78
2019-03-16T00:14:09.727Z,101097.08
2019-03-16T00:15:10.562Z,101097.77
2019-03-16T00:16:11.613Z,101098.61
2019-03-16T00:17:22.889Z,101099.31
2019-03-16T00:18:12.259Z,101100.56
2019-03-16T00:19:14.029Z,101101.44
2019-03-16T00:20:14.813Z,101103.23
2019-03-16T00:21:15.565Z,101105.08
2019-03-16T00:22:16.485Z,101106.62
2019-03-16T00:23:17.110Z,101108.59
2019-03-16T00:23:26.145Z,101132.75
2019-03-16T00:24:27.874Z,101132.36
2019-03-16T00:25:28.491Z,101132.45
2019-03-16T00:26:29.463Z,101133.88
2019-03-16T00:27:30.367Z,101135.73
2019-03-16T00:28:30.507Z,101136.62
2019-03-16T00:29:31.341Z,101137.33
2019-03-16T00:30:32.252Z,101140.14
2019-03-16T00:31:32.941Z,101142.20
2019-03-16T00:32:33.020Z,101144.77
2019-03-16T00:33:33.814Z,101147.11
2019-03-16T00:34:34.735Z,101149.59
2019-03-16T00:35:35.590Z,101151.55
2019-03-16T00:36:36.374Z,101153.34
2019-03-16T00:37:37.269Z,101155.30
2019-03-16T00:38:38.083Z,101156.55
2019-03-16T00:39:38.912Z,101157.34
2019-03-16T00:40:38.945Z,101157.62
2019-03-16T00:41:39.128Z,101158.20
2019-03-16T00:42:39.825Z,101158.86
2019-03-16T00:43:40.534Z,101159.94
2019-03-16T00:44:41.200Z,101161.52
2019-03-16T00:45:41.437Z,101163.16
2019-03-16T00:46:42.099Z,101164.73
2019-03-16T00:47:42.863Z,101165.47
2019-03-16T00:48:43.531Z,101166.52
2019-03-16T00:49:44.284Z,101167.77
2019-03-16T00:50:44.335Z,101168.42
2019-03-16T00:51:45.197Z,101168.98
2019-03-16T00:52:46.127Z,101169.47
2019-03-16T00:53:46.932Z,101169.54
2019-03-16T00:54:47.043Z,101170.14
2019-03-16T00:55:47.071Z,101170.62
2019-03-16T00:56:47.217Z,101170.86
2019-03-16T00:57:47.285Z,101170.42
2019-03-16T00:58:48.225Z,101170.56
2019-03-16T00:59:49.173Z,101170.00
2019-03-16T01:00:49.960Z,101169.40
2019-03-16T01:01:50.696Z,101170.02
2019-03-16T01:02:51.417Z,101169.58
2019-03-16T01:03:52.128Z,101169.86
2019-03-16T01:04:52.938Z,101171.19
2019-03-16T01:05:53.710Z,101171.38
2019-03-16T01:06:54.516Z,101171.53
2019-03-16T01:07:55.410Z,101172.63
2019-03-16T01:08:03.967Z,101188.08
2019-03-16T01:09:05.742Z,101187.57
2019-03-16T01:10:06.544Z,101187.23
2019-03-16T01:11:07.345Z,101187.12
2019-03-16T01:12:08.275Z,101187.37
2019-03-16T01:13:09.046Z,101187.20
2019-03-16T01:14:09.775Z,101186.70
2019-03-16T01:15:10.573Z,101186.02
2019-03-16T01:16:11.317Z,101185.44
2019-03-16T01:17:12.134Z,101184.92
2019-03-16T01:18:12.618Z,101185.30
2019-03-16T01:19:13.291Z,101185.16
2019-03-16T01:20:13.943Z,101184.69
2019-03-16T01:21:14.799Z,101184.59
2019-03-16T01:22:15.568Z,101184.72
2019-03-16T01:23:17.767Z,101184.66
2019-03-16T01:24:15.539Z,101184.52
2019-03-16T01:25:17.372Z,101184.05
2019-03-16T01:26:18.207Z,101183.58
2019-03-16T01:27:19.106Z,101183.44
2019-03-16T01:28:19.179Z,101183.13
2019-03-16T01:29:20.011Z,101183.75
2019-03-16T01:30:20.891Z,101184.03
2019-03-16T01:31:21.696Z,101184.60
2019-03-16T01:32:22.563Z,101184.72
2019-03-16T01:33:22.707Z,101184.58
2019-03-16T01:34:22.738Z,101184.10
2019-03-16T01:35:23.713Z,101184.39
2019-03-16T01:36:24.681Z,101184.59
2019-03-16T01:37:25.058Z,101184.50
2019-03-16T01:38:25.741Z,101184.78
2019-03-16T01:39:26.428Z,101185.45
2019-03-16T01:40:27.364Z,101185.31
2019-03-16T01:41:28.138Z,101185.05
2019-03-16T01:42:28.889Z,101184.85
2019-03-16T01:43:29.714Z,101185.14
2019-03-16T01:44:30.451Z,101184.91
2019-03-16T01:45:31.263Z,101185.61
2019-03-16T01:46:32.012Z,101185.31
2019-03-16T01:47:32.700Z,101185.12
2019-03-16T01:48:33.666Z,101185.56
2019-03-16T01:49:34.591Z,101185.84
2019-03-16T01:50:35.379Z,101186.38
2019-03-16T01:51:35.481Z,101186.19
2019-03-16T01:51:44.055Z,101188.70
2019-03-16T01:52:45.891Z,101188.19
2019-03-16T01:53:46.806Z,101187.09
2019-03-16T01:54:46.854Z,101186.20
2019-03-16T01:55:46.954Z,101186.54
2019-03-16T01:56:47.032Z,101186.37
2019-03-16T01:57:47.949Z,101186.23
2019-03-16T01:58:48.918Z,101186.68
2019-03-16T01:59:49.801Z,101186.63
2019-03-16T02:00:50.680Z,101186.48
2019-03-16T02:01:50.754Z,101186.43
2019-03-16T02:02:55.692Z,101186.42
2019-03-16T02:03:49.880Z,101186.55
2019-03-16T02:04:51.885Z,101186.96
2019-03-16T02:05:51.951Z,101187.49
2019-03-16T02:06:52.833Z,101188.23
2019-03-16T02:07:53.546Z,101188.48
2019-03-16T02:08:54.469Z,101188.28
2019-03-16T02:09:55.395Z,101188.20
2019-03-16T02:10:56.126Z,101188.09
2019-03-16T02:11:56.831Z,101188.84
2019-03-16T02:12:57.534Z,101188.65
2019-03-16T02:13:58.495Z,101188.67
2019-03-16T02:14:59.282Z,101188.53
2019-03-16T02:16:10.481Z,101188.87
2019-03-16T02:16:59.835Z,101188.05
2019-03-16T02:18:01.697Z,101188.08
2019-03-16T02:19:01.726Z,101187.72
2019-03-16T02:20:02.689Z,101187.49
2019-03-16T02:21:03.563Z,101186.71
2019-03-16T02:22:04.303Z,101185.89
2019-03-16T02:23:05.136Z,101185.45
2019-03-16T02:24:06.059Z,101185.47
2019-03-16T02:25:06.916Z,101185.17
2019-03-16T02:26:07.693Z,101185.03
2019-03-16T02:27:08.681Z,101185.05
2019-03-16T02:28:09.086Z,101185.16
2019-03-16T02:29:09.698Z,101184.77
2019-03-16T02:30:10.656Z,101184.38
2019-03-16T02:31:11.369Z,101184.55
2019-03-16T02:32:12.170Z,101184.88
2019-03-16T02:33:13.906Z,101185.00
2019-03-16T02:34:12.817Z,101185.19
2019-03-16T02:35:14.694Z,101184.89
2019-03-16T02:36:15.599Z,101185.72
2019-03-16T02:37:16.459Z,101185.00
2019-03-16T02:38:17.081Z,101184.82
2019-03-16T02:38:25.656Z,101185.18
2019-03-16T02:39:27.615Z,101184.62
2019-03-16T02:40:28.352Z,101184.03
2019-03-16T02:41:29.136Z,101183.86
2019-03-16T02:42:29.940Z,101183.70
2019-03-16T02:43:30.727Z,101183.52
2019-03-16T02:44:30.755Z,101183.80
2019-03-16T02:45:31.594Z,101183.39
2019-03-16T02:46:31.659Z,101183.64
2019-03-16T02:47:32.519Z,101183.92
2019-03-16T02:48:33.317Z,101183.75
2019-03-16T02:49:34.221Z,101183.50
2019-03-16T02:50:35.182Z,101183.02
2019-03-16T02:51:35.204Z,101182.43
2019-03-16T02:52:36.151Z,101182.34
2019-03-16T02:53:37.004Z,101181.78
2019-03-16T02:54:37.850Z,101181.84
2019-03-16T02:55:38.754Z,101181.50
2019-03-16T02:56:38.765Z,101181.84
2019-03-16T02:57:39.687Z,101181.42
2019-03-16T02:58:40.512Z,101181.39
2019-03-16T02:59:41.455Z,101181.45
2019-03-16T03:00:42.375Z,101180.61
2019-03-16T03:01:43.280Z,101180.33
2019-03-16T03:02:44.096Z,101179.97
2019-03-16T03:03:45.015Z,101179.63
2019-03-16T03:04:46.695Z,101178.77
2019-03-16T03:05:44.865Z,101178.42
2019-03-16T03:06:46.029Z,101177.64
2019-03-16T03:07:46.072Z,101177.53
2019-03-16T03:08:47.058Z,101176.86
2019-03-16T03:09:47.844Z,101176.91
2019-03-16T03:10:47.714Z,101176.64
2019-03-16T03:11:49.468Z,101175.85
2019-03-16T03:12:50.252Z,101175.19
2019-03-16T03:13:51.128Z,101174.90
2019-03-16T03:14:51.777Z,101174.78
2019-03-16T03:15:52.493Z,101174.34
2019-03-16T03:16:52.524Z,101173.38
2019-03-16T03:17:52.606Z,101172.97
2019-03-16T03:18:52.689Z,101172.52
2019-03-16T03:19:53.339Z,101172.07
2019-03-16T03:20:54.270Z,101171.95
2019-03-16T03:21:55.073Z,101171.17
2019-03-16T03:22:55.866Z,101170.59
2019-03-16T03:23:04.402Z,101154.04
2019-03-16T03:24:06.167Z,101153.78
2019-03-16T03:25:06.962Z,101153.78
2019-03-16T03:26:07.729Z,101153.73
2019-03-16T03:27:08.652Z,101153.95
2019-03-16T03:28:09.570Z,101154.38
2019-03-16T03:29:10.535Z,101154.12
2019-03-16T03:30:10.595Z,101153.11
2019-03-16T03:31:10.415Z,101152.19
2019-03-16T03:32:12.366Z,101151.91
2019-03-16T03:33:13.351Z,101151.48
2019-03-16T03:34:13.092Z,101150.91
2019-03-16T03:35:15.012Z,101150.20
2019-03-16T03:36:15.725Z,101149.86
2019-03-16T03:37:16.396Z,101149.44
2019-03-16T03:38:17.084Z,101148.66
2019-03-16T03:39:17.222Z,101148.41
2019-03-16T03:40:17.868Z,101147.81
2019-03-16T03:41:18.773Z,101147.78
2019-03-16T03:42:19.781Z,101146.94
2019-03-16T03:43:19.476Z,101145.94
2019-03-16T03:44:21.458Z,101145.34
2019-03-16T03:45:22.147Z,101143.91
2019-03-16T03:46:23.089Z,101143.41
2019-03-16T03:47:23.836Z,101142.91
2019-03-16T03:48:24.733Z,101142.99
2019-03-16T03:49:25.548Z,101143.25
2019-03-16T03:50:26.496Z,101142.80
2019-03-16T03:51:27.273Z,101141.95
2019-03-16T03:52:28.121Z,101141.95
2019-03-16T03:53:28.876Z,101140.77
2019-03-16T03:54:28.935Z,101139.94
2019-03-16T03:55:29.835Z,101139.09
2019-03-16T03:56:30.699Z,101139.34
2019-03-16T03:57:31.592Z,101139.01
2019-03-16T03:58:32.473Z,101138.25
2019-03-16T03:59:33.296Z,101137.33
2019-03-16T04:00:34.231Z,101137.07
2019-03-16T04:01:34.232Z,101137.23
2019-03-16T04:02:35.125Z,101137.07
2019-03-16T04:03:35.929Z,101137.41
2019-03-16T04:04:36.207Z,101137.36
2019-03-16T04:05:37.001Z,101136.67
2019-03-16T04:06:37.104Z,101136.77
2019-03-16T04:07:37.922Z,101136.71
2019-03-16T04:08:38.135Z,101136.45
2019-03-16T04:09:39.039Z,101136.13
2019-03-16T04:09:47.579Z,101129.11
2019-03-16T04:10:48.976Z,101128.52
2019-03-16T04:11:49.116Z,101128.52
2019-03-16T04:12:49.349Z,101128.64
2019-03-16T04:13:50.148Z,101128.72
2019-03-16T04:14:50.937Z,101128.80
2019-03-16T04:15:50.601Z,101128.21
2019-03-16T04:16:52.496Z,101128.72
2019-03-16T04:17:52.607Z,101128.83
2019-03-16T04:18:53.384Z,101129.25
2019-03-16T04:19:54.330Z,101129.67
2019-03-16T04:20:55.233Z,101129.73
2019-03-16T04:21:56.161Z,101129.98
2019-03-16T04:22:56.297Z,101130.15
2019-03-16T04:23:56.304Z,101130.57
2019-03-16T04:24:57.016Z,101130.66
2019-03-16T04:25:57.937Z,101130.88
2019-03-16T04:27:14.633Z,101131.13
2019-03-16T04:27:58.598Z,101131.30
2019-03-16T04:29:00.431Z,101131.63
2019-03-16T04:30:01.357Z,101132.22
2019-03-16T04:31:02.368Z,101132.64
2019-03-16T04:32:03.132Z,101133.15
2019-03-16T04:33:04.074Z,101133.23
2019-03-16T04:34:04.058Z,101133.69
2019-03-16T04:35:04.816Z,101133.69
2019-03-16T04:36:05.662Z,101133.94
2019-03-16T04:37:06.400Z,101133.84
2019-03-16T04:38:07.143Z,101134.27
2019-03-16T04:39:07.867Z,101134.72
2019-03-16T04:40:08.697Z,101134.64
2019-03-16T04:41:09.473Z,101134.72
2019-03-16T04:42:10.354Z,101134.25
2019-03-16T04:43:10.059Z,101133.99
2019-03-16T04:44:11.774Z,101133.40
2019-03-16T04:45:12.528Z,101133.06
2019-03-16T04:46:12.592Z,101132.67
2019-03-16T04:47:12.655Z,101132.17
2019-03-16T04:48:13.649Z,101131.08
2019-03-16T04:49:14.531Z,101130.66
2019-03-16T04:50:15.241Z,101129.73
2019-03-16T04:51:15.312Z,101129.34
2019-03-16T04:52:15.155Z,101128.75
2019-03-16T04:53:17.081Z,101128.16
2019-03-16T04:54:17.133Z,101127.94
2019-03-16T04:55:17.154Z,101127.60
2019-03-16T04:56:17.914Z,101126.34
2019-03-16T04:57:18.809Z,101126.17
2019-03-16T04:58:19.752Z,101126.17
2019-03-16T04:58:31.289Z,101116.27
2019-03-16T04:59:32.975Z,101116.05
2019-03-16T05:00:33.093Z,101115.55
2019-03-16T05:01:33.091Z,101115.20
2019-03-16T05:02:33.467Z,101114.53
2019-03-16T05:03:34.147Z,101113.86
2019-03-16T05:04:42.394Z,101113.69
2019-03-16T05:05:34.044Z,101113.10
2019-03-16T05:06:35.741Z,101112.52
2019-03-16T05:07:36.572Z,101112.34
2019-03-16T05:08:36.471Z,101111.79
2019-03-16T05:09:36.503Z,101111.34
2019-03-16T05:10:38.319Z,101110.27
2019-03-16T05:11:39.311Z,101110.16
2019-03-16T05:12:38.990Z,101109.48
2019-03-16T05:13:40.871Z,101108.47
2019-03-16T05:14:41.794Z,101107.97
2019-03-16T05:15:42.752Z,101107.41
2019-03-16T05:16:43.667Z,101106.48
2019-03-16T05:17:44.418Z,101106.06
2019-03-16T05:18:44.485Z,101105.56
2019-03-16T05:19:45.233Z,101104.80
2019-03-16T05:20:46.042Z,101104.25
2019-03-16T05:21:46.903Z,101104.25
2019-03-16T05:22:47.779Z,101104.25
2019-03-16T05:23:48.652Z,101103.66
2019-03-16T05:24:49.552Z,101103.83
2019-03-16T05:25:50.445Z,101103.41
2019-03-16T05:26:50.556Z,101103.66
2019-03-16T05:27:51.420Z,101103.52
2019-03-16T05:28:51.773Z,101103.52
2019-03-16T05:29:51.801Z,101103.46
2019-03-16T05:30:52.524Z,101103.04
2019-03-16T05:31:53.288Z,101103.29
2019-03-16T05:32:53.348Z,101103.49
2019-03-16T05:33:54.185Z,101103.91
2019-03-16T05:34:56.658Z,101102.93
2019-03-16T05:35:54.918Z,101102.67
2019-03-16T05:36:56.878Z,101102.42
2019-03-16T05:37:57.085Z,101101.78
2019-03-16T05:38:57.928Z,101100.94
2019-03-16T05:39:58.806Z,101100.41
2019-03-16T05:40:58.864Z,101099.95
2019-03-16T05:41:59.627Z,101099.28
2019-03-16T05:43:00.338Z,101098.64
2019-03-16T05:44:00.341Z,101097.66
2019-03-16T05:45:01.147Z,101097.77
2019-03-16T05:46:01.330Z,101097.25
2019-03-16T05:47:01.377Z,101096.77
2019-03-16T05:48:00.885Z,101096.52
2019-03-16T05:48:09.408Z,101094.98
2019-03-16T05:49:11.113Z,101094.52
2019-03-16T05:50:11.824Z,101094.52
2019-03-16T05:51:12.600Z,101093.28
2019-03-16T05:52:12.829Z,101092.80
2019-03-16T05:53:13.294Z,101093.48
2019-03-16T05:54:12.281Z,101092.97
2019-03-16T05:55:14.041Z,101092.88
2019-03-16T05:56:14.925Z,101093.50
2019-03-16T05:57:15.658Z,101094.16
2019-03-16T05:58:16.458Z,101094.70
2019-03-16T05:59:17.374Z,101094.86
2019-03-16T06:00:18.253Z,101094.81
2019-03-16T06:01:18.996Z,101095.05
2019-03-16T06:02:19.626Z,101095.71
2019-03-16T06:03:20.408Z,101095.36
2019-03-16T06:04:20.456Z,101095.43
2019-03-16T06:05:21.067Z,101095.97
2019-03-16T06:06:21.913Z,101095.90
2019-03-16T06:07:22.650Z,101095.97
2019-03-16T06:08:23.565Z,101095.53
2019-03-16T06:09:24.528Z,101095.80
2019-03-16T06:10:25.411Z,101095.95
2019-03-16T06:11:26.231Z,101095.69
2019-03-16T06:12:25.685Z,101093.72
2019-03-16T06:13:27.421Z,101093.23
2019-03-16T06:14:28.208Z,101091.98
2019-03-16T06:15:29.086Z,101091.80
2019-03-16T06:16:29.973Z,101091.17
2019-03-16T06:17:30.875Z,101091.02
2019-03-16T06:18:30.057Z,101091.20
2019-03-16T06:19:31.282Z,101091.72
2019-03-16T06:20:32.227Z,101091.73
2019-03-16T06:21:33.065Z,101092.17
2019-03-16T06:22:33.996Z,101091.94
2019-03-16T06:23:34.977Z,101090.86
2019-03-16T06:24:35.274Z,101090.53
2019-03-16T06:25:35.426Z,101089.82
2019-03-16T06:26:36.277Z,101089.33
2019-03-16T06:27:37.049Z,101090.02
2019-03-16T06:28:37.982Z,101090.91
2019-03-16T06:29:38.038Z,101091.97
2019-03-16T06:30:38.938Z,101092.44
2019-03-16T06:31:39.837Z,101093.30
2019-03-16T06:32:39.751Z,101093.86
2019-03-16T06:33:41.616Z,101094.16
2019-03-16T06:34:42.542Z,101095.61
2019-03-16T06:35:43.439Z,101095.98
2019-03-16T06:35:52.029Z,101108.97
2019-03-16T06:36:53.193Z,101108.63
2019-03-16T06:37:53.940Z,101107.62
2019-03-16T06:38:54.006Z,101108.23
2019-03-16T06:39:54.816Z,101108.23
2019-03-16T06:40:55.589Z,101108.83
2019-03-16T06:41:55.794Z,101109.59
2019-03-16T06:42:56.658Z,101110.78
2019-03-16T06:43:57.531Z,101112.04
2019-03-16T06:44:58.034Z,101113.05
2019-03-16T06:45:58.047Z,101113.89
2019-03-16T06:46:58.999Z,101114.73
2019-03-16T06:47:59.902Z,101115.92
2019-03-16T06:49:00.736Z,101117.52
2019-03-16T06:50:01.512Z,101118.37
2019-03-16T06:51:01.550Z,101119.17
2019-03-16T06:52:01.731Z,101120.78
2019-03-16T06:53:02.692Z,101121.63
2019-03-16T06:54:03.637Z,101122.38
2019-03-16T06:55:04.237Z,101123.62
2019-03-16T06:56:05.193Z,101124.87
2019-03-16T06:57:05.970Z,101125.89
2019-03-16T06:58:06.954Z,101126.66
2019-03-16T06:59:07.825Z,101127.97
2019-03-16T07:00:08.711Z,101129.31
2019-03-16T07:01:09.503Z,101129.98
2019-03-16T07:02:10.304Z,101131.64
2019-03-16T07:03:11.096Z,101131.93
2019-03-16T07:04:11.156Z,101133.41
2019-03-16T07:05:11.982Z,101134.68
2019-03-16T07:06:12.980Z,101135.83
2019-03-16T07:07:13.681Z,101136.89
2019-03-16T07:08:14.495Z,101138.49
2019-03-16T07:09:15.339Z,101139.34
2019-03-16T07:10:16.284Z,101141.23
2019-03-16T07:11:17.214Z,101142.25
2019-03-16T07:12:17.222Z,101143.44
2019-03-16T07:13:17.949Z,101144.95
2019-03-16T07:14:18.138Z,101146.30
2019-03-16T07:15:18.835Z,101148.80
2019-03-16T07:16:19.514Z,101150.48
2019-03-16T07:17:20.110Z,101152.06
2019-03-16T07:18:20.873Z,101153.16
2019-03-16T07:19:21.481Z,101154.67
2019-03-16T07:19:33.766Z,101172.27
2019-03-16T07:20:31.988Z,101172.44
2019-03-16T07:21:32.839Z,101172.19
2019-03-16T07:22:34.538Z,101172.35
2019-03-16T07:23:34.833Z,101171.96
2019-03-16T07:24:34.296Z,101172.19
2019-03-16T07:25:36.064Z,101172.09
2019-03-16T07:26:36.190Z,101172.01
2019-03-16T07:27:37.003Z,101171.98
2019-03-16T07:28:37.685Z,101172.48
2019-03-16T07:29:38.343Z,101173.16
2019-03-16T07:30:38.966Z,101172.87
2019-03-16T07:31:39.750Z,101172.28
2019-03-16T07:32:40.543Z,101172.75
2019-03-16T07:33:41.293Z,101172.92
2019-03-16T07:34:42.083Z,101173.30
2019-03-16T07:35:42.265Z,101173.02
2019-03-16T07:36:43.075Z,101172.30
2019-03-16T07:37:44.040Z,101171.80
2019-03-16T07:38:44.949Z,101170.75
2019-03-16T07:39:45.049Z,101171.42
2019-03-16T07:40:45.875Z,101171.39
2019-03-16T07:41:46.123Z,101171.72
2019-03-16T07:42:46.889Z,101172.28
2019-03-16T07:43:47.767Z,101172.16
2019-03-16T07:44:48.472Z,101171.31
2019-03-16T07:45:48.161Z,101169.84
2019-03-16T07:46:49.932Z,101169.47
2019-03-16T07:47:50.833Z,101169.64
2019-03-16T07:48:51.686Z,101169.27
2019-03-16T07:49:52.467Z,101169.09
2019-03-16T07:50:53.249Z,101169.14
2019-03-16T07:51:53.968Z,101168.86
2019-03-16T07:52:53.967Z,101168.91
2019-03-16T07:53:55.853Z,101168.28
2019-03-16T07:54:55.873Z,101168.41
2019-03-16T07:55:56.652Z,101169.05
2019-03-16T07:56:57.597Z,101169.44
2019-03-16T07:57:58.406Z,101169.52
2019-03-16T07:58:59.234Z,101170.16
2019-03-16T08:00:00.044Z,101169.95
2019-03-16T08:01:03.283Z,101171.12
2019-03-16T08:02:00.514Z,101171.30
2019-03-16T08:03:02.368Z,101171.89
2019-03-16T08:04:03.157Z,101172.61
2019-03-16T08:05:16.928Z,101172.95
2019-03-16T08:06:03.956Z,101172.91
2019-03-16T08:07:05.779Z,101173.17
2019-03-16T08:08:06.588Z,101173.59
2019-03-16T08:09:07.579Z,101174.14
2019-03-16T08:09:16.152Z,101183.56
2019-03-16T08:10:16.950Z,101183.00
2019-03-16T08:11:18.036Z,101183.00
2019-03-16T08:12:18.061Z,101183.09
2019-03-16T08:13:18.914Z,101184.02
2019-03-16T08:14:19.639Z,101184.05
2019-03-16T08:15:20.353Z,101184.39
2019-03-16T08:16:21.144Z,101184.98
2019-03-16T08:17:21.900Z,101185.02
2019-03-16T08:18:22.812Z,101185.22
2019-03-16T08:19:23.639Z,101185.40
2019-03-16T08:20:24.413Z,101185.66
2019-03-16T08:21:25.088Z,101185.34
2019-03-16T08:22:25.790Z,101185.02
2019-03-16T08:23:26.615Z,101185.72
2019-03-16T08:24:26.619Z,101185.00
2019-03-16T08:25:27.469Z,101185.00
2019-03-16T08:26:27.633Z,101184.53
2019-03-16T08:27:27.815Z,101184.02
2019-03-16T08:28:28.524Z,101182.84
2019-03-16T08:29:29.218Z,101182.45
2019-03-16T08:30:29.872Z,101181.52
2019-03-16T08:31:30.577Z,101179.75
2019-03-16T08:32:31.159Z,101178.57
2019-03-16T08:33:31.878Z,101177.22
2019-03-16T08:34:32.683Z,101176.42
2019-03-16T08:35:33.330Z,101175.87
2019-03-16T08:36:34.094Z,101175.59
2019-03-16T08:37:34.837Z,101174.58
2019-03-16T08:38:35.667Z,101174.03
2019-03-16T08:39:36.582Z,101174.11
2019-03-16T08:40:37.342Z,101174.16
2019-03-16T08:41:38.290Z,101173.63
2019-03-16T08:42:39.059Z,101173.95
2019-03-16T08:43:39.783Z,101173.92
2019-03-16T08:44:40.553Z,101173.75
2019-03-16T08:45:40.581Z,101174.14
2019-03-16T08:46:41.320Z,101173.77
2019-03-16T08:47:42.318Z,101174.23
2019-03-16T08:48:43.127Z,101174.28
2019-03-16T08:49:44.118Z,101174.41
2019-03-16T08:50:44.883Z,101174.50
2019-03-16T08:51:45.592Z,101174.59
2019-03-16T08:52:45.867Z,101173.88
2019-03-16T08:53:46.574Z,101173.34
2019-03-16T08:54:47.398Z,101173.64
2019-03-16T08:54:55.960Z,101166.77
2019-03-16T08:55:57.540Z,101166.69
2019-03-16T08:56:58.393Z,101167.61
2019-03-16T08:58:06.002Z,101167.61
2019-03-16T08:58:58.493Z,101168.87
2019-03-16T09:00:00.442Z,101169.77
2019-03-16T09:01:00.118Z,101171.04
2019-03-16T09:02:01.191Z,101172.22
2019-03-16T09:03:01.366Z,101173.48
2019-03-16T09:04:01.568Z,101174.70
2019-03-16T09:05:01.569Z,101175.42
2019-03-16T09:06:02.555Z,101176.09
2019-03-16T09:07:03.511Z,101176.44
2019-03-16T09:08:04.387Z,101176.86
2019-03-16T09:09:05.229Z,101176.47
2019-03-16T09:10:06.085Z,101176.64
2019-03-16T09:11:07.295Z,101176.67
2019-03-16T09:12:08.020Z,101176.52
2019-03-16T09:13:07.717Z,101176.55
2019-03-16T09:14:09.953Z,101176.08
2019-03-16T09:15:09.741Z,101175.69
2019-03-16T09:16:10.300Z,101175.78
2019-03-16T09:17:11.654Z,101174.89
2019-03-16T09:18:10.706Z,101174.84
2019-03-16T09:19:11.999Z,101175.52
2019-03-16T09:20:11.876Z,101174.96
2019-03-16T09:21:13.778Z,101175.30
2019-03-16T09:22:14.480Z,101174.66
2019-03-16T09:23:15.262Z,101174.44
2019-03-16T09:24:15.854Z,101173.94
2019-03-16T09:25:16.702Z,101173.44
2019-03-16T09:26:15.726Z,101173.63
2019-03-16T09:27:30.324Z,101173.64
2019-03-16T09:28:18.963Z,101173.98
2019-03-16T09:29:17.701Z,101174.09
2019-03-16T09:30:19.482Z,101173.34
2019-03-16T09:31:19.526Z,101173.92
2019-03-16T09:32:20.516Z,101173.92
2019-03-16T09:33:21.540Z,101174.31
2019-03-16T09:34:21.117Z,101174.09
2019-03-16T09:35:22.139Z,101175.02
2019-03-16T09:36:22.157Z,101174.52
2019-03-16T09:37:23.065Z,101174.22
2019-03-16T09:38:23.947Z,101174.72
2019-03-16T09:39:24.900Z,101175.14
2019-03-16T09:40:25.788Z,101175.19
2019-03-16T09:41:25.845Z,101174.80
2019-03-16T09:42:26.604Z,101174.66
2019-03-16T09:43:27.539Z,101175.04
2019-03-16T09:44:28.273Z,101174.58
2019-03-16T09:45:28.983Z,101174.90
2019-03-16T09:46:29.710Z,101174.97
2019-03-16T09:47:30.411Z,101174.79
2019-03-16T09:47:39.525Z,101176.95
2019-03-16T09:48:40.636Z,101176.95
2019-03-16T09:49:41.342Z,101175.95
2019-03-16T09:50:41.327Z,101176.20
2019-03-16T09:51:42.192Z,101176.28
2019-03-16T09:52:42.819Z,101176.03
2019-03-16T09:53:43.688Z,101175.95
2019-03-16T09:54:44.409Z,101175.73
2019-03-16T09:55:45.281Z,101175.30
2019-03-16T09:56:46.112Z,101174.88
2019-03-16T09:57:45.993Z,101174.55
2019-03-16T09:58:47.857Z,101174.80
2019-03-16T09:59:48.637Z,101174.46
2019-03-16T10:00:49.429Z,101174.38
2019-03-16T10:01:50.219Z,101173.92
2019-03-16T10:02:50.332Z,101173.58
2019-03-16T10:03:51.277Z,101172.95
2019-03-16T10:04:52.166Z,101171.94
2019-03-16T10:05:53.112Z,101171.39
2019-03-16T10:06:54.012Z,101170.72
2019-03-16T10:07:55.037Z,101169.67
2019-03-16T10:08:54.904Z,101169.64
2019-03-16T10:09:56.571Z,101168.71
2019-03-16T10:10:57.455Z,101168.17
2019-03-16T10:11:58.285Z,101167.38
2019-03-16T10:12:59.228Z,101166.27
2019-03-16T10:14:00.148Z,101165.31
2019-03-16T10:15:01.006Z,101163.75
2019-03-16T10:16:01.901Z,101162.95
2019-03-16T10:17:02.785Z,101161.57
2019-03-16T10:18:03.655Z,101160.30
2019-03-16T10:19:04.603Z,101158.75
2019-03-16T10:20:05.299Z,101157.11
2019-03-16T10:21:06.042Z,101155.98
2019-03-16T10:22:06.773Z,101154.20
2019-03-16T10:23:07.553Z,101152.70
2019-03-16T10:24:08.483Z,101151.22
2019-03-16T10:25:09.090Z,101149.92
2019-03-16T10:26:09.814Z,101148.49
2019-03-16T10:27:10.659Z,101147.02
2019-03-16T10:28:10.458Z,101144.63
2019-03-16T10:29:11.448Z,101143.52
2019-03-16T10:30:12.164Z,101142.69
2019-03-16T10:31:11.417Z,101141.13
2019-03-16T10:32:13.213Z,101140.20
2019-03-16T10:33:14.080Z,101139.11
2019-03-16T10:34:14.797Z,101137.76
2019-03-16T10:35:15.632Z,101137.39
2019-03-16T10:36:03.868Z,101136.38
2019-03-16T10:37:04.790Z,101135.83
2019-03-16T10:38:04.975Z,101135.99
2019-03-16T10:39:05.511Z,101135.63
2019-03-16T10:40:06.724Z,101134.86
2019-03-16T10:41:06.846Z,101133.93
2019-03-16T10:42:06.845Z,101133.56
2019-03-16T10:43:07.451Z,101133.27
2019-03-16T10:44:07.393Z,101133.31
2019-03-16T10:45:07.365Z,101133.78
2019-03-16T10:46:09.400Z,101132.26
2019-03-16T10:47:10.246Z,101131.67
2019-03-16T10:48:11.097Z,101131.46
2019-03-16T10:49:10.811Z,101131.38
2019-03-16T10:50:12.590Z,101131.13
2019-03-16T10:51:13.515Z,101129.94
2019-03-16T10:52:14.248Z,101129.01
2019-03-16T10:53:15.129Z,101128.84
2019-03-16T10:54:16.104Z,101128.92
2019-03-16T10:55:17.102Z,101128.30
2019-03-16T10:56:17.320Z,101128.22
2019-03-16T10:57:18.214Z,101127.76
2019-03-16T10:58:19.046Z,101127.64
2019-03-16T10:59:19.883Z,101126.66
2019-03-16T11:00:20.112Z,101126.38
2019-03-16T11:01:20.354Z,101125.88
2019-03-16T11:02:21.190Z,101125.08
2019-03-16T11:03:21.989Z,101124.33
2019-03-16T11:04:22.852Z,101123.35
2019-03-16T11:05:22.108Z,101122.43
2019-03-16T11:06:24.057Z,101121.13
2019-03-16T11:07:24.060Z,101120.75
2019-03-16T11:08:25.088Z,101120.42
2019-03-16T11:09:26.793Z,101119.53
2019-03-16T11:10:25.879Z,101118.82
2019-03-16T11:11:27.100Z,101118.19
2019-03-16T11:12:27.169Z,101118.66
2019-03-16T11:13:35.706Z,101118.70
2019-03-16T11:14:29.952Z,101118.87
2019-03-16T11:15:27.822Z,101118.30
2019-03-16T11:16:29.646Z,101117.58
2019-03-16T11:17:30.032Z,101117.41
2019-03-16T11:18:29.047Z,101116.91
2019-03-16T11:19:29.899Z,101117.00
2019-03-16T11:20:31.460Z,101116.47